sensor_id;sensor_type;location;lat;lon;timestamp;temperature;humidity
38902;DHT22;24661;53.566;9.910;2023-05-02T00:01:01;10.90;99.90
38902;DHT22;24661;53.566;9.910;2023-05-02T00:03:30;10.90;99.90
38902;DHT22;24661;53.566;9.910;2023-05-02T00:05:56;10.90;99.90
38902;DHT22;24661;53.566;9.910;2023-05-02T00:08:21;10.90;99.90
38902;DHT22;24661;53.566;9.910;2023-05-02T00:10:47;10.90;99.90
38902;DHT22;24661;53.566;9.910;2023-05-02T00:13:13;10.90;99.90
38902;DHT22;24661;53.566;9.910;2023-05-02T00:15:38;10.90;99.90
38902;DHT22;24661;53.566;9.910;2023-05-02T00:18:04;10.90;99.90
38902;DHT22;24661;53.566;9.910;2023-05-02T00:20:29;10.90;99.90
38902;DHT22;24661;53.566;9.910;2023-05-02T00:22:55;11.00;99.90
38902;DHT22;24661;53.566;9.910;2023-05-02T00:25:21;11.00;99.90
38902;DHT22;24661;53.566;9.910;2023-05-02T00:27:47;11.00;99.90
38902;DHT22;24661;53.566;9.910;2023-05-02T00:30:16;11.00;99.90
38902;DHT22;24661;53.566;9.910;2023-05-02T00:32:42;11.00;99.90
38902;DHT22;24661;53.566;9.910;2023-05-02T00:35:08;11.00;99.90
38902;DHT22;24661;53.566;9.910;2023-05-02T00:37:34;11.00;99.90
38902;DHT22;24661;53.566;9.910;2023-05-02T00:40:00;11.00;99.90
38902;DHT22;24661;53.566;9.910;2023-05-02T00:42:26;11.00;99.90
38902;DHT22;24661;53.566;9.910;2023-05-02T00:44:53;11.00;99.90
38902;DHT22;24661;53.566;9.910;2023-05-02T00:47:19;11.00;99.90
38902;DHT22;24661;53.566;9.910;2023-05-02T00:49:45;11.00;99.90
38902;DHT22;24661;53.566;9.910;2023-05-02T00:52:10;11.00;99.90
38902;DHT22;24661;53.566;9.910;2023-05-02T00:54:37;11.00;99.90
38902;DHT22;24661;53.566;9.910;2023-05-02T00:57:04;11.00;99.90
38902;DHT22;24661;53.566;9.910;2023-05-02T00:59:30;11.00;99.90
38902;DHT22;24661;53.566;9.910;2023-05-02T01:02:21;11.00;99.90
38902;DHT22;24661;53.566;9.910;2023-05-02T01:08:02;11.00;99.90
38902;DHT22;24661;53.566;9.910;2023-05-02T01:13:08;10.90;99.90
38902;DHT22;24661;53.566;9.910;2023-05-02T01:15:38;10.90;99.90
38902;DHT22;24661;53.566;9.910;2023-05-02T01:18:08;10.90;99.90
38902;DHT22;24661;53.566;9.910;2023-05-02T01:20:37;10.90;99.90
38902;DHT22;24661;53.566;9.910;2023-05-02T01:23:31;10.90;99.90
38902;DHT22;24661;53.566;9.910;2023-05-02T01:26:09;10.80;99.90
38902;DHT22;24661;53.566;9.910;2023-05-02T01:31:18;10.70;99.90
38902;DHT22;24661;53.566;9.910;2023-05-02T01:33:44;10.60;99.90
38902;DHT22;24661;53.566;9.910;2023-05-02T01:36:11;10.60;99.90
38902;DHT22;24661;53.566;9.910;2023-05-02T01:38:38;10.60;99.90
38902;DHT22;24661;53.566;9.910;2023-05-02T01:41:04;10.60;99.90
38902;DHT22;24661;53.566;9.910;2023-05-02T01:43:32;10.50;99.90
38902;DHT22;24661;53.566;9.910;2023-05-02T01:45:59;10.50;99.90
38902;DHT22;24661;53.566;9.910;2023-05-02T01:48:26;10.50;99.90
38902;DHT22;24661;53.566;9.910;2023-05-02T01:50:54;10.40;99.90
38902;DHT22;24661;53.566;9.910;2023-05-02T01:53:23;10.40;99.90
38902;DHT22;24661;53.566;9.910;2023-05-02T01:55:49;10.40;99.90
38902;DHT22;24661;53.566;9.910;2023-05-02T01:58:18;10.40;99.90
38902;DHT22;24661;53.566;9.910;2023-05-02T02:00:45;10.30;99.90
38902;DHT22;24661;53.566;9.910;2023-05-02T02:03:11;10.30;99.90
38902;DHT22;24661;53.566;9.910;2023-05-02T02:05:39;10.30;99.90
38902;DHT22;24661;53.566;9.910;2023-05-02T02:08:05;10.30;99.90
38902;DHT22;24661;53.566;9.910;2023-05-02T02:10:35;10.30;99.90
38902;DHT22;24661;53.566;9.910;2023-05-02T02:13:21;10.30;99.90
38902;DHT22;24661;53.566;9.910;2023-05-02T02:15:52;10.30;99.90
38902;DHT22;24661;53.566;9.910;2023-05-02T02:18:24;10.30;99.90
38902;DHT22;24661;53.566;9.910;2023-05-02T02:20:52;10.40;99.90
38902;DHT22;24661;53.566;9.910;2023-05-02T02:23:20;10.30;99.90
38902;DHT22;24661;53.566;9.910;2023-05-02T02:25:49;10.30;99.90
38902;DHT22;24661;53.566;9.910;2023-05-02T02:28:15;10.20;99.90
38902;DHT22;24661;53.566;9.910;2023-05-02T02:30:41;10.20;99.90
38902;DHT22;24661;53.566;9.910;2023-05-02T02:33:06;10.20;99.90
38902;DHT22;24661;53.566;9.910;2023-05-02T02:35:41;10.10;99.90
38902;DHT22;24661;53.566;9.910;2023-05-02T02:40:59;9.90;99.90
38902;DHT22;24661;53.566;9.910;2023-05-02T02:43:35;9.90;99.90
38902;DHT22;24661;53.566;9.910;2023-05-02T02:46:15;9.80;99.90
38902;DHT22;24661;53.566;9.910;2023-05-02T02:51:10;9.50;99.90
38902;DHT22;24661;53.566;9.910;2023-05-02T02:54:13;9.40;99.90
38902;DHT22;24661;53.566;9.910;2023-05-02T02:56:46;9.40;99.90
38902;DHT22;24661;53.566;9.910;2023-05-02T02:59:26;9.30;99.90
38902;DHT22;24661;53.566;9.910;2023-05-02T03:02:01;9.20;99.90
38902;DHT22;24661;53.566;9.910;2023-05-02T03:04:30;9.20;99.90
38902;DHT22;24661;53.566;9.910;2023-05-02T03:06:57;9.10;99.90
38902;DHT22;24661;53.566;9.910;2023-05-02T03:09:22;9.10;99.90
38902;DHT22;24661;53.566;9.910;2023-05-02T03:11:48;9.00;99.90
38902;DHT22;24661;53.566;9.910;2023-05-02T03:14:13;8.90;99.90
38902;DHT22;24661;53.566;9.910;2023-05-02T03:16:40;8.90;99.90
38902;DHT22;24661;53.566;9.910;2023-05-02T03:19:06;8.80;99.90
38902;DHT22;24661;53.566;9.910;2023-05-02T03:21:33;8.80;99.90
38902;DHT22;24661;53.566;9.910;2023-05-02T03:24:00;8.90;99.90
38902;DHT22;24661;53.566;9.910;2023-05-02T03:26:26;8.80;99.90
38902;DHT22;24661;53.566;9.910;2023-05-02T03:28:53;8.80;99.90
38902;DHT22;24661;53.566;9.910;2023-05-02T03:31:19;8.70;99.90
38902;DHT22;24661;53.566;9.910;2023-05-02T03:33:46;8.50;99.90
38902;DHT22;24661;53.566;9.910;2023-05-02T03:36:11;8.50;99.90
38902;DHT22;24661;53.566;9.910;2023-05-02T03:38:37;8.50;99.90
38902;DHT22;24661;53.566;9.910;2023-05-02T03:41:03;8.40;99.90
38902;DHT22;24661;53.566;9.910;2023-05-02T03:43:29;8.30;99.90
38902;DHT22;24661;53.566;9.910;2023-05-02T03:45:54;8.20;99.90
38902;DHT22;24661;53.566;9.910;2023-05-02T03:48:20;8.20;99.90
38902;DHT22;24661;53.566;9.910;2023-05-02T03:50:46;8.20;99.90
38902;DHT22;24661;53.566;9.910;2023-05-02T03:53:12;8.20;99.90
38902;DHT22;24661;53.566;9.910;2023-05-02T03:55:38;8.10;99.90
38902;DHT22;24661;53.566;9.910;2023-05-02T03:58:05;8.00;99.90
38902;DHT22;24661;53.566;9.910;2023-05-02T04:00:31;8.10;99.90
38902;DHT22;24661;53.566;9.910;2023-05-02T04:02:57;8.10;99.90
38902;DHT22;24661;53.566;9.910;2023-05-02T04:05:22;8.00;99.90
38902;DHT22;24661;53.566;9.910;2023-05-02T04:07:48;8.00;99.90
38902;DHT22;24661;53.566;9.910;2023-05-02T04:10:13;8.00;99.90
38902;DHT22;24661;53.566;9.910;2023-05-02T04:12:42;8.10;99.90
38902;DHT22;24661;53.566;9.910;2023-05-02T04:15:11;8.00;99.90
38902;DHT22;24661;53.566;9.910;2023-05-02T04:17:37;8.00;99.90
38902;DHT22;24661;53.566;9.910;2023-05-02T04:20:04;8.00;99.90
38902;DHT22;24661;53.566;9.910;2023-05-02T04:22:30;7.90;99.90
38902;DHT22;24661;53.566;9.910;2023-05-02T04:24:56;7.90;99.90
38902;DHT22;24661;53.566;9.910;2023-05-02T04:27:21;7.80;99.90
38902;DHT22;24661;53.566;9.910;2023-05-02T04:29:48;7.80;99.90
38902;DHT22;24661;53.566;9.910;2023-05-02T04:32:14;7.80;99.90
38902;DHT22;24661;53.566;9.910;2023-05-02T04:34:40;7.70;99.90
38902;DHT22;24661;53.566;9.910;2023-05-02T04:37:05;7.80;99.90
38902;DHT22;24661;53.566;9.910;2023-05-02T04:39:31;7.70;99.90
38902;DHT22;24661;53.566;9.910;2023-05-02T04:41:57;7.80;99.90
38902;DHT22;24661;53.566;9.910;2023-05-02T04:44:23;8.10;99.90
38902;DHT22;24661;53.566;9.910;2023-05-02T04:46:48;7.80;99.90
38902;DHT22;24661;53.566;9.910;2023-05-02T04:49:14;7.80;99.90
38902;DHT22;24661;53.566;9.910;2023-05-02T04:51:39;7.70;99.90
38902;DHT22;24661;53.566;9.910;2023-05-02T04:54:05;7.70;99.90
38902;DHT22;24661;53.566;9.910;2023-05-02T04:56:31;7.80;99.90
38902;DHT22;24661;53.566;9.910;2023-05-02T04:58:56;7.80;99.90
38902;DHT22;24661;53.566;9.910;2023-05-02T05:01:23;7.80;99.90
38902;DHT22;24661;53.566;9.910;2023-05-02T05:03:49;7.80;99.90
38902;DHT22;24661;53.566;9.910;2023-05-02T05:06:14;7.70;99.90
38902;DHT22;24661;53.566;9.910;2023-05-02T05:08:40;7.80;99.90
38902;DHT22;24661;53.566;9.910;2023-05-02T05:11:05;7.80;99.90
38902;DHT22;24661;53.566;9.910;2023-05-02T05:13:31;7.80;99.90
38902;DHT22;24661;53.566;9.910;2023-05-02T05:15:56;7.80;99.90
38902;DHT22;24661;53.566;9.910;2023-05-02T05:18:22;7.70;99.90
38902;DHT22;24661;53.566;9.910;2023-05-02T05:20:48;7.70;99.90
38902;DHT22;24661;53.566;9.910;2023-05-02T05:23:14;7.70;99.90
38902;DHT22;24661;53.566;9.910;2023-05-02T05:25:39;7.70;99.90
38902;DHT22;24661;53.566;9.910;2023-05-02T05:28:05;7.70;99.90
38902;DHT22;24661;53.566;9.910;2023-05-02T05:30:30;7.70;99.90
38902;DHT22;24661;53.566;9.910;2023-05-02T05:32:56;7.70;99.90
38902;DHT22;24661;53.566;9.910;2023-05-02T05:35:25;7.60;99.90
38902;DHT22;24661;53.566;9.910;2023-05-02T05:37:50;7.60;99.90
38902;DHT22;24661;53.566;9.910;2023-05-02T05:40:16;7.60;99.90
38902;DHT22;24661;53.566;9.910;2023-05-02T05:42:42;7.60;99.90
38902;DHT22;24661;53.566;9.910;2023-05-02T05:45:08;7.60;99.90
38902;DHT22;24661;53.566;9.910;2023-05-02T05:47:33;7.50;99.90
38902;DHT22;24661;53.566;9.910;2023-05-02T05:49:59;7.50;99.90
38902;DHT22;24661;53.566;9.910;2023-05-02T05:52:25;7.50;99.90
38902;DHT22;24661;53.566;9.910;2023-05-02T05:54:54;7.50;99.90
38902;DHT22;24661;53.566;9.910;2023-05-02T05:57:21;8.90;99.90
38902;DHT22;24661;53.566;9.910;2023-05-02T05:59:47;7.50;99.90
38902;DHT22;24661;53.566;9.910;2023-05-02T06:02:13;7.50;99.90
38902;DHT22;24661;53.566;9.910;2023-05-02T06:04:39;7.50;99.90
38902;DHT22;24661;53.566;9.910;2023-05-02T06:07:04;7.40;99.90
38902;DHT22;24661;53.566;9.910;2023-05-02T06:09:30;7.40;99.90
38902;DHT22;24661;53.566;9.910;2023-05-02T06:11:56;7.40;99.90
38902;DHT22;24661;53.566;9.910;2023-05-02T06:14:21;7.50;99.90
38902;DHT22;24661;53.566;9.910;2023-05-02T06:16:47;7.60;99.90
38902;DHT22;24661;53.566;9.910;2023-05-02T06:19:12;7.60;99.90
38902;DHT22;24661;53.566;9.910;2023-05-02T06:21:39;7.70;99.90
38902;DHT22;24661;53.566;9.910;2023-05-02T06:24:05;7.80;99.90
38902;DHT22;24661;53.566;9.910;2023-05-02T06:26:31;7.80;99.90
38902;DHT22;24661;53.566;9.910;2023-05-02T06:28:56;7.90;99.90
38902;DHT22;24661;53.566;9.910;2023-05-02T06:31:22;8.00;99.90
38902;DHT22;24661;53.566;9.910;2023-05-02T06:33:47;8.00;99.90
38902;DHT22;24661;53.566;9.910;2023-05-02T06:36:13;8.00;99.90
38902;DHT22;24661;53.566;9.910;2023-05-02T06:38:39;7.90;99.90
38902;DHT22;24661;53.566;9.910;2023-05-02T06:41:05;7.90;99.90
38902;DHT22;24661;53.566;9.910;2023-05-02T06:43:31;7.80;99.90
38902;DHT22;24661;53.566;9.910;2023-05-02T06:45:58;7.90;99.90
38902;DHT22;24661;53.566;9.910;2023-05-02T06:48:23;7.90;99.90
38902;DHT22;24661;53.566;9.910;2023-05-02T06:50:51;7.90;99.90
38902;DHT22;24661;53.566;9.910;2023-05-02T06:53:17;7.90;99.90
38902;DHT22;24661;53.566;9.910;2023-05-02T06:55:43;7.90;99.90
38902;DHT22;24661;53.566;9.910;2023-05-02T06:58:10;7.80;99.90
38902;DHT22;24661;53.566;9.910;2023-05-02T07:00:36;7.90;99.90
38902;DHT22;24661;53.566;9.910;2023-05-02T07:03:01;7.90;99.90
38902;DHT22;24661;53.566;9.910;2023-05-02T07:05:28;8.00;99.90
38902;DHT22;24661;53.566;9.910;2023-05-02T07:07:55;8.10;99.90
38902;DHT22;24661;53.566;9.910;2023-05-02T07:10:20;8.10;99.90
38902;DHT22;24661;53.566;9.910;2023-05-02T07:12:46;8.10;99.90
38902;DHT22;24661;53.566;9.910;2023-05-02T07:15:11;8.20;99.90
38902;DHT22;24661;53.566;9.910;2023-05-02T07:17:38;8.10;99.90
38902;DHT22;24661;53.566;9.910;2023-05-02T07:20:05;8.00;99.90
38902;DHT22;24661;53.566;9.910;2023-05-02T07:22:31;8.10;99.90
38902;DHT22;24661;53.566;9.910;2023-05-02T07:25:01;8.20;99.90
38902;DHT22;24661;53.566;9.910;2023-05-02T07:27:26;8.30;99.90
38902;DHT22;24661;53.566;9.910;2023-05-02T07:29:52;8.20;99.90
38902;DHT22;24661;53.566;9.910;2023-05-02T07:32:19;8.20;99.90
38902;DHT22;24661;53.566;9.910;2023-05-02T07:34:46;8.40;99.90
38902;DHT22;24661;53.566;9.910;2023-05-02T07:37:12;8.50;99.90
38902;DHT22;24661;53.566;9.910;2023-05-02T07:39:37;8.50;99.90
38902;DHT22;24661;53.566;9.910;2023-05-02T07:42:03;8.60;99.90
38902;DHT22;24661;53.566;9.910;2023-05-02T07:44:28;8.50;99.90
38902;DHT22;24661;53.566;9.910;2023-05-02T07:46:54;8.40;99.90
38902;DHT22;24661;53.566;9.910;2023-05-02T07:49:19;8.40;99.90
38902;DHT22;24661;53.566;9.910;2023-05-02T07:51:45;8.40;99.90
38902;DHT22;24661;53.566;9.910;2023-05-02T07:54:15;8.50;99.90
38902;DHT22;24661;53.566;9.910;2023-05-02T07:56:41;8.60;99.90
38902;DHT22;24661;53.566;9.910;2023-05-02T07:59:07;8.50;99.90
38902;DHT22;24661;53.566;9.910;2023-05-02T08:01:34;8.40;99.90
38902;DHT22;24661;53.566;9.910;2023-05-02T08:03:59;8.30;99.90
38902;DHT22;24661;53.566;9.910;2023-05-02T08:06:25;8.40;99.90
38902;DHT22;24661;53.566;9.910;2023-05-02T08:08:52;8.50;99.90
38902;DHT22;24661;53.566;9.910;2023-05-02T08:11:17;8.60;99.90
38902;DHT22;24661;53.566;9.910;2023-05-02T08:13:44;8.70;99.90
38902;DHT22;24661;53.566;9.910;2023-05-02T08:16:10;8.70;99.90
38902;DHT22;24661;53.566;9.910;2023-05-02T08:18:35;8.80;99.90
38902;DHT22;24661;53.566;9.910;2023-05-02T08:21:01;8.90;99.90
38902;DHT22;24661;53.566;9.910;2023-05-02T08:23:26;8.90;99.90
38902;DHT22;24661;53.566;9.910;2023-05-02T08:25:53;9.70;99.90
38902;DHT22;24661;53.566;9.910;2023-05-02T08:28:18;8.30;99.90
38902;DHT22;24661;53.566;9.910;2023-05-02T08:30:44;9.00;99.90
38902;DHT22;24661;53.566;9.910;2023-05-02T08:33:09;9.10;99.90
38902;DHT22;24661;53.566;9.910;2023-05-02T08:35:35;9.20;99.90
38902;DHT22;24661;53.566;9.910;2023-05-02T08:38:01;9.10;99.90
38902;DHT22;24661;53.566;9.910;2023-05-02T08:40:26;9.20;99.90
38902;DHT22;24661;53.566;9.910;2023-05-02T08:42:53;9.20;99.90
38902;DHT22;24661;53.566;9.910;2023-05-02T08:45:19;9.30;99.90
38902;DHT22;24661;53.566;9.910;2023-05-02T08:47:46;9.30;99.90
38902;DHT22;24661;53.566;9.910;2023-05-02T08:50:12;9.30;99.90
38902;DHT22;24661;53.566;9.910;2023-05-02T08:52:37;9.30;99.90
38902;DHT22;24661;53.566;9.910;2023-05-02T08:55:05;9.50;99.90
38902;DHT22;24661;53.566;9.910;2023-05-02T08:57:31;9.50;99.90
38902;DHT22;24661;53.566;9.910;2023-05-02T08:59:58;9.50;99.90
38902;DHT22;24661;53.566;9.910;2023-05-02T09:02:50;9.60;99.90
38902;DHT22;24661;53.566;9.910;2023-05-02T09:05:22;9.90;99.90
38902;DHT22;24661;53.566;9.910;2023-05-02T09:07:50;10.00;99.90
38902;DHT22;24661;53.566;9.910;2023-05-02T09:10:16;10.10;99.90
38902;DHT22;24661;53.566;9.910;2023-05-02T09:12:42;10.10;99.90
38902;DHT22;24661;53.566;9.910;2023-05-02T09:15:12;10.30;99.90
38902;DHT22;24661;53.566;9.910;2023-05-02T09:17:40;10.40;99.90
38902;DHT22;24661;53.566;9.910;2023-05-02T09:20:07;10.50;99.90
38902;DHT22;24661;53.566;9.910;2023-05-02T09:22:32;10.60;99.90
38902;DHT22;24661;53.566;9.910;2023-05-02T09:24:59;10.70;99.90
38902;DHT22;24661;53.566;9.910;2023-05-02T09:27:26;10.80;99.90
38902;DHT22;24661;53.566;9.910;2023-05-02T09:29:52;10.70;99.90
38902;DHT22;24661;53.566;9.910;2023-05-02T09:32:45;10.60;99.90
38902;DHT22;24661;53.566;9.910;2023-05-02T09:35:11;10.40;99.90
38902;DHT22;24661;53.566;9.910;2023-05-02T09:37:38;10.30;99.90
38902;DHT22;24661;53.566;9.910;2023-05-02T09:40:07;10.30;99.90
38902;DHT22;24661;53.566;9.910;2023-05-02T09:42:36;10.30;99.90
38902;DHT22;24661;53.566;9.910;2023-05-02T09:45:01;10.50;99.90
38902;DHT22;24661;53.566;9.910;2023-05-02T09:47:27;10.60;99.90
38902;DHT22;24661;53.566;9.910;2023-05-02T09:49:52;10.70;99.90
38902;DHT22;24661;53.566;9.910;2023-05-02T09:52:19;10.80;99.90
38902;DHT22;24661;53.566;9.910;2023-05-02T09:54:48;10.90;99.90
38902;DHT22;24661;53.566;9.910;2023-05-02T09:57:18;11.00;99.90
38902;DHT22;24661;53.566;9.910;2023-05-02T09:59:56;11.10;99.90
38902;DHT22;24661;53.566;9.910;2023-05-02T10:02:23;10.90;99.90
38902;DHT22;24661;53.566;9.910;2023-05-02T10:04:49;10.80;99.90
38902;DHT22;24661;53.566;9.910;2023-05-02T10:07:16;10.70;99.90
38902;DHT22;24661;53.566;9.910;2023-05-02T10:09:45;10.70;99.90
38902;DHT22;24661;53.566;9.910;2023-05-02T10:12:15;10.80;99.90
38902;DHT22;24661;53.566;9.910;2023-05-02T10:14:47;10.90;99.90
38902;DHT22;24661;53.566;9.910;2023-05-02T10:17:21;10.80;99.90
38902;DHT22;24661;53.566;9.910;2023-05-02T10:20:05;11.00;99.90
38902;DHT22;24661;53.566;9.910;2023-05-02T10:22:35;11.30;99.90
38902;DHT22;24661;53.566;9.910;2023-05-02T10:25:02;11.30;99.90
38902;DHT22;24661;53.566;9.910;2023-05-02T10:27:31;11.40;99.90
38902;DHT22;24661;53.566;9.910;2023-05-02T10:30:00;11.30;99.90
38902;DHT22;24661;53.566;9.910;2023-05-02T10:32:28;11.30;99.90
38902;DHT22;24661;53.566;9.910;2023-05-02T10:34:56;11.20;99.90
38902;DHT22;24661;53.566;9.910;2023-05-02T10:37:23;11.20;99.90
38902;DHT22;24661;53.566;9.910;2023-05-02T10:39:50;11.00;99.90
38902;DHT22;24661;53.566;9.910;2023-05-02T10:42:16;10.90;99.90
38902;DHT22;24661;53.566;9.910;2023-05-02T10:44:43;10.90;99.90
38902;DHT22;24661;53.566;9.910;2023-05-02T10:47:23;10.90;99.90
38902;DHT22;24661;53.566;9.910;2023-05-02T10:52:47;11.00;99.90
38902;DHT22;24661;53.566;9.910;2023-05-02T10:55:20;11.00;99.90
38902;DHT22;24661;53.566;9.910;2023-05-02T11:00:32;10.90;99.90
38902;DHT22;24661;53.566;9.910;2023-05-02T11:03:01;10.90;99.90
38902;DHT22;24661;53.566;9.910;2023-05-02T11:05:27;11.10;99.90
38902;DHT22;24661;53.566;9.910;2023-05-02T11:10:40;11.10;99.90
38902;DHT22;24661;53.566;9.910;2023-05-02T11:13:05;11.30;99.90
38902;DHT22;24661;53.566;9.910;2023-05-02T11:18:01;11.30;99.90
38902;DHT22;24661;53.566;9.910;2023-05-02T11:20:30;10.90;99.90
38902;DHT22;24661;53.566;9.910;2023-05-02T11:25:46;10.70;99.90
38902;DHT22;24661;53.566;9.910;2023-05-02T11:33:59;11.00;99.90
38902;DHT22;24661;53.566;9.910;2023-05-02T11:38:54;11.30;99.90
38902;DHT22;24661;53.566;9.910;2023-05-02T11:41:20;11.30;99.90
38902;DHT22;24661;53.566;9.910;2023-05-02T11:43:45;11.40;99.90
38902;DHT22;24661;53.566;9.910;2023-05-02T11:46:11;11.40;99.90
38902;DHT22;24661;53.566;9.910;2023-05-02T11:48:37;11.30;99.90
38902;DHT22;24661;53.566;9.910;2023-05-02T11:51:02;11.40;99.90
38902;DHT22;24661;53.566;9.910;2023-05-02T11:53:29;11.50;99.90
38902;DHT22;24661;53.566;9.910;2023-05-02T11:55:58;11.60;99.90
38902;DHT22;24661;53.566;9.910;2023-05-02T11:58:28;11.80;99.90
38902;DHT22;24661;53.566;9.910;2023-05-02T12:00:55;11.90;99.90
38902;DHT22;24661;53.566;9.910;2023-05-02T12:03:29;12.00;99.90
38902;DHT22;24661;53.566;9.910;2023-05-02T12:05:56;12.10;99.90
38902;DHT22;24661;53.566;9.910;2023-05-02T12:08:28;12.10;99.90
38902;DHT22;24661;53.566;9.910;2023-05-02T12:10:55;11.90;99.90
38902;DHT22;24661;53.566;9.910;2023-05-02T12:13:23;11.70;99.90
38902;DHT22;24661;53.566;9.910;2023-05-02T12:15:50;11.70;99.90
38902;DHT22;24661;53.566;9.910;2023-05-02T12:18:16;11.80;99.90
38902;DHT22;24661;53.566;9.910;2023-05-02T12:20:42;11.90;99.90
38902;DHT22;24661;53.566;9.910;2023-05-02T12:23:09;12.10;99.90
38902;DHT22;24661;53.566;9.910;2023-05-02T12:25:42;12.20;99.90
38902;DHT22;24661;53.566;9.910;2023-05-02T12:28:08;12.20;99.90
38902;DHT22;24661;53.566;9.910;2023-05-02T12:30:35;12.20;99.90
38902;DHT22;24661;53.566;9.910;2023-05-02T12:33:03;12.00;99.90
38902;DHT22;24661;53.566;9.910;2023-05-02T12:35:30;11.80;99.90
38902;DHT22;24661;53.566;9.910;2023-05-02T12:38:11;11.80;99.90
38902;DHT22;24661;53.566;9.910;2023-05-02T12:40:38;11.90;99.90
38902;DHT22;24661;53.566;9.910;2023-05-02T12:43:04;12.10;99.90
38902;DHT22;24661;53.566;9.910;2023-05-02T12:45:33;12.10;99.90
38902;DHT22;24661;53.566;9.910;2023-05-02T12:48:17;11.80;99.90
38902;DHT22;24661;53.566;9.910;2023-05-02T12:50:43;11.70;99.90
38902;DHT22;24661;53.566;9.910;2023-05-02T12:53:08;11.80;99.90
38902;DHT22;24661;53.566;9.910;2023-05-02T12:55:34;11.70;99.90
38902;DHT22;24661;53.566;9.910;2023-05-02T12:58:07;11.50;99.90
38902;DHT22;24661;53.566;9.910;2023-05-02T13:00:38;11.50;99.90
38902;DHT22;24661;53.566;9.910;2023-05-02T13:03:05;11.50;99.90
38902;DHT22;24661;53.566;9.910;2023-05-02T13:05:31;11.30;99.90
38902;DHT22;24661;53.566;9.910;2023-05-02T13:07:57;11.40;99.90
38902;DHT22;24661;53.566;9.910;2023-05-02T13:10:23;12.80;99.90
38902;DHT22;24661;53.566;9.910;2023-05-02T13:12:50;11.30;99.90
38902;DHT22;24661;53.566;9.910;2023-05-02T13:15:16;11.30;99.90
38902;DHT22;24661;53.566;9.910;2023-05-02T13:17:43;11.30;99.90
38902;DHT22;24661;53.566;9.910;2023-05-02T13:20:09;11.20;99.90
38902;DHT22;24661;53.566;9.910;2023-05-02T13:22:35;11.30;99.90
38902;DHT22;24661;53.566;9.910;2023-05-02T13:25:04;11.50;99.90
38902;DHT22;24661;53.566;9.910;2023-05-02T13:27:30;11.60;99.90
38902;DHT22;24661;53.566;9.910;2023-05-02T13:29:56;11.60;99.90
38902;DHT22;24661;53.566;9.910;2023-05-02T13:32:21;11.40;99.90
38902;DHT22;24661;53.566;9.910;2023-05-02T13:34:47;11.10;99.90
38902;DHT22;24661;53.566;9.910;2023-05-02T13:37:13;11.10;99.90
38902;DHT22;24661;53.566;9.910;2023-05-02T13:39:38;11.00;99.90
38902;DHT22;24661;53.566;9.910;2023-05-02T13:42:04;10.80;99.90
38902;DHT22;24661;53.566;9.910;2023-05-02T13:44:31;10.90;99.90
38902;DHT22;24661;53.566;9.910;2023-05-02T13:46:56;9.30;99.90
38902;DHT22;24661;53.566;9.910;2023-05-02T13:49:22;10.70;99.90
38902;DHT22;24661;53.566;9.910;2023-05-02T13:51:48;10.70;99.90
38902;DHT22;24661;53.566;9.910;2023-05-02T13:54:14;10.60;99.90
38902;DHT22;24661;53.566;9.910;2023-05-02T13:56:40;10.60;99.90
38902;DHT22;24661;53.566;9.910;2023-05-02T13:59:06;10.60;99.90
38902;DHT22;24661;53.566;9.910;2023-05-02T14:01:31;10.60;99.90
38902;DHT22;24661;53.566;9.910;2023-05-02T14:03:57;10.40;99.90
38902;DHT22;24661;53.566;9.910;2023-05-02T14:06:23;10.40;99.90
38902;DHT22;24661;53.566;9.910;2023-05-02T14:08:49;10.30;99.90
38902;DHT22;24661;53.566;9.910;2023-05-02T14:11:17;10.30;99.90
38902;DHT22;24661;53.566;9.910;2023-05-02T14:13:43;10.30;99.90
38902;DHT22;24661;53.566;9.910;2023-05-02T14:16:08;10.50;99.90
38902;DHT22;24661;53.566;9.910;2023-05-02T14:18:34;10.80;99.90
38902;DHT22;24661;53.566;9.910;2023-05-02T14:21:00;10.90;99.90
38902;DHT22;24661;53.566;9.910;2023-05-02T14:23:26;11.10;99.90
38902;DHT22;24661;53.566;9.910;2023-05-02T14:25:53;11.10;99.90
38902;DHT22;24661;53.566;9.910;2023-05-02T14:28:18;11.00;99.90
38902;DHT22;24661;53.566;9.910;2023-05-02T14:30:46;11.10;99.90
38902;DHT22;24661;53.566;9.910;2023-05-02T14:33:13;11.00;99.90
38902;DHT22;24661;53.566;9.910;2023-05-02T14:35:38;11.10;99.90
38902;DHT22;24661;53.566;9.910;2023-05-02T14:38:04;11.20;99.90
38902;DHT22;24661;53.566;9.910;2023-05-02T14:40:29;11.30;99.90
38902;DHT22;24661;53.566;9.910;2023-05-02T14:42:56;11.60;99.90
38902;DHT22;24661;53.566;9.910;2023-05-02T14:45:22;11.70;99.90
38902;DHT22;24661;53.566;9.910;2023-05-02T14:47:48;11.70;99.90
38902;DHT22;24661;53.566;9.910;2023-05-02T14:50:15;11.50;99.90
38902;DHT22;24661;53.566;9.910;2023-05-02T14:52:41;11.40;99.90
38902;DHT22;24661;53.566;9.910;2023-05-02T14:55:06;11.20;99.90
38902;DHT22;24661;53.566;9.910;2023-05-02T14:57:33;11.00;99.90
38902;DHT22;24661;53.566;9.910;2023-05-02T14:59:59;11.00;99.90
38902;DHT22;24661;53.566;9.910;2023-05-02T15:02:24;10.90;99.90
38902;DHT22;24661;53.566;9.910;2023-05-02T15:04:50;10.80;99.90
38902;DHT22;24661;53.566;9.910;2023-05-02T15:07:16;10.80;99.90
38902;DHT22;24661;53.566;9.910;2023-05-02T15:09:41;10.80;99.90
38902;DHT22;24661;53.566;9.910;2023-05-02T15:12:07;10.80;99.90
38902;DHT22;24661;53.566;9.910;2023-05-02T15:14:32;10.80;99.90
38902;DHT22;24661;53.566;9.910;2023-05-02T15:16:58;10.70;99.90
38902;DHT22;24661;53.566;9.910;2023-05-02T15:19:23;10.80;99.90
38902;DHT22;24661;53.566;9.910;2023-05-02T15:21:50;10.80;99.90
38902;DHT22;24661;53.566;9.910;2023-05-02T15:24:19;10.90;99.90
38902;DHT22;24661;53.566;9.910;2023-05-02T15:26:44;10.90;99.90
38902;DHT22;24661;53.566;9.910;2023-05-02T15:29:10;10.80;99.90
38902;DHT22;24661;53.566;9.910;2023-05-02T15:31:36;10.70;99.90
38902;DHT22;24661;53.566;9.910;2023-05-02T15:34:02;10.60;99.90
38902;DHT22;24661;53.566;9.910;2023-05-02T15:36:28;10.60;99.90
38902;DHT22;24661;53.566;9.910;2023-05-02T15:38:55;10.60;99.90
38902;DHT22;24661;53.566;9.910;2023-05-02T15:41:20;10.60;99.90
38902;DHT22;24661;53.566;9.910;2023-05-02T15:43:46;10.60;99.90
38902;DHT22;24661;53.566;9.910;2023-05-02T15:46:12;10.50;99.90
38902;DHT22;24661;53.566;9.910;2023-05-02T15:48:37;10.40;99.90
38902;DHT22;24661;53.566;9.910;2023-05-02T15:51:03;10.40;99.90
38902;DHT22;24661;53.566;9.910;2023-05-02T15:53:30;10.40;99.90
38902;DHT22;24661;53.566;9.910;2023-05-02T15:55:55;10.50;99.90
38902;DHT22;24661;53.566;9.910;2023-05-02T15:58:21;10.30;99.90
38902;DHT22;24661;53.566;9.910;2023-05-02T16:00:47;10.40;99.90
38902;DHT22;24661;53.566;9.910;2023-05-02T16:03:13;10.40;99.90
38902;DHT22;24661;53.566;9.910;2023-05-02T16:05:40;10.40;99.90
38902;DHT22;24661;53.566;9.910;2023-05-02T16:08:06;10.50;99.90
38902;DHT22;24661;53.566;9.910;2023-05-02T16:10:31;10.40;99.90
38902;DHT22;24661;53.566;9.910;2023-05-02T16:12:57;10.40;99.90